< < Back
Terminal Aerodrome Forecast


Current Version              Previous Versions:   1  2  3  4  5  6  7  8  9  

Terminal Aerodrome Forecast

178
FTUS42 KTAE 020500
TAFVLD
TAF
KVLD 020520Z 0206/0306 VRB02KT P6SM FEW040
     FM022200 15004KT P6SM VCTS SCT040CB=

Latest METAR

342
SAUS70 KWBC 020800 RRG
MTRVLD
METAR KVLD 020753Z 00000KT 10SM CLR 23/22 A3003 RMK AO2 SLP174
T02330222


USA.gov is the U.S. government's official web portal to all federal, state and local government web resources and services.